Time;durP1;ratioP1;P1;durP2;ratioP2;P2;SDS_P1;SDS_P2;PMS_P1;PMS_P2;Temp;Humidity;BMP_temperature;BMP_pressure;BME280_temperature;BME280_humidity;BME280_pressure;Samples;Min_cycle;Max_cycle;Signal;HPM_P1;HPM_P2
2022/08/10 00:01:03;;;;;;;;;4.00;4.00;;;;;27.80;38.29;101916.59;5035403;28;58433;-71
2022/08/10 00:03:29;;;;;;;;;7.33;5.67;;;;;27.76;38.46;101920.44;5035794;28;45610;-70
2022/08/10 00:05:55;;;;;;;;;6.00;4.67;;;;;27.75;38.07;101915.94;5035944;28;45545;-72
2022/08/10 00:08:21;;;;;;;;;5.67;5.67;;;;;27.71;38.08;101923.34;5036053;28;45665;-70
2022/08/10 00:10:46;;;;;;;;;6.00;6.00;;;;;27.67;38.37;101921.66;5017823;28;45845;-71
2022/08/10 00:13:12;;;;;;;;;7.67;5.00;;;;;27.65;38.61;101923.56;5017470;28;57374;-71
2022/08/10 00:15:37;;;;;;;;;6.00;6.00;;;;;27.60;38.68;101912.91;5016908;28;58421;-72
2022/08/10 00:18:03;;;;;;;;;5.00;5.00;;;;;27.59;38.34;101916.59;5035349;28;53084;-72
2022/08/10 00:20:28;;;;;;;;;5.00;5.00;;;;;27.56;39.00;101918.53;5017538;28;46006;-70
2022/08/10 00:22:53;;;;;;;;;5.33;5.00;;;;;27.55;38.68;101917.66;5017163;28;63996;-72
2022/08/10 00:25:19;;;;;;;;;6.00;4.00;;;;;27.52;38.68;101917.78;5034626;28;63009;-71
2022/08/10 00:27:44;;;;;;;;;4.00;4.00;;;;;27.50;38.90;101919.69;5034978;28;61074;-72
2022/08/10 00:30:10;;;;;;;;;7.00;5.00;;;;;27.47;39.12;101916.22;5035082;28;52278;-71
2022/08/10 00:32:35;;;;;;;;;6.67;5.33;;;;;27.46;39.18;101922.59;5034449;28;45339;-72
2022/08/10 00:35:01;;;;;;;;;5.00;5.00;;;;;27.41;39.37;101920.06;5034728;28;56484;-72
2022/08/10 00:37:26;;;;;;;;;4.00;4.00;;;;;27.38;39.10;101917.50;5035576;28;45315;-72
2022/08/10 00:39:51;;;;;;;;;5.00;5.00;;;;;27.36;39.30;101916.66;5034240;28;68308;-70
2022/08/10 00:42:17;;;;;;;;;4.00;4.00;;;;;27.35;39.34;101917.63;5034808;28;63096;-70
2022/08/10 00:44:44;;;;;;;;;4.33;3.33;;;;;27.31;39.30;101911.41;5035461;28;45450;-72
2022/08/10 00:47:11;;;;;;;;;4.00;4.00;;;;;27.29;39.66;101907.03;5035203;28;45282;-71
2022/08/10 00:49:36;;;;;;;;;5.00;3.33;;;;;27.27;39.86;101908.91;5017162;28;46281;-70
2022/08/10 00:52:02;;;;;;;;;4.00;3.00;;;;;27.24;39.59;101909.91;4976812;28;1161052;-70
2022/08/10 00:54:28;;;;;;;;;5.00;3.33;;;;;27.20;39.41;101910.09;5036110;28;45366;-72
2022/08/10 00:56:53;;;;;;;;;4.00;4.00;;;;;27.16;39.66;101909.34;5018055;28;45266;-70
2022/08/10 00:59:19;;;;;;;;;5.00;3.00;;;;;27.11;39.35;101904.13;5035472;28;68195;-71
2022/08/10 01:01:44;;;;;;;;;5.00;5.00;;;;;27.08;39.86;101912.38;5018109;28;62101;-71
2022/08/10 01:04:09;;;;;;;;;5.33;4.33;;;;;27.02;39.96;101909.88;5036760;28;45343;-70
2022/08/10 01:06:44;;;;;;;;;4.33;4.33;;;;;27.03;40.20;101900.81;5036689;28;45373;-70
2022/08/10 01:09:16;;;;;;;;;4.67;4.00;;;;;27.01;39.91;101908.13;5036183;28;45484;-72
2022/08/10 01:11:45;;;;;;;;;7.00;4.00;;;;;27.00;39.92;101908.16;5018550;28;45494;-71
2022/08/10 01:14:34;;;;;;;;;8.67;5.00;;;;;26.95;40.09;101902.94;5036400;28;45331;-72
2022/08/10 01:17:02;;;;;;;;;5.67;5.67;;;;;26.93;39.92;101895.81;5018437;28;45400;-70
2022/08/10 01:20:06;;;;;;;;;5.00;5.00;;;;;26.91;40.16;101901.31;5018045;28;45806;-72
2022/08/10 01:22:44;;;;;;;;;7.00;5.33;;;;;26.89;40.23;101895.06;5036508;28;45162;-71
2022/08/10 01:25:27;;;;;;;;;7.00;4.00;;;;;26.86;40.34;101900.63;5036305;28;45296;-72
2022/08/10 01:27:58;;;;;;;;;4.67;4.67;;;;;26.82;40.34;101899.84;5036389;28;45464;-71
2022/08/10 01:30:27;;;;;;;;;5.00;3.67;;;;;26.76;40.53;101897.38;5036228;28;47131;-71
2022/08/10 01:33:09;;;;;;;;;6.33;4.33;;;;;26.77;40.17;101900.97;5018324;28;45443;-71
2022/08/10 01:35:40;;;;;;;;;4.00;4.00;;;;;26.73;40.58;101896.59;5018090;28;45229;-70
2022/08/10 01:38:09;;;;;;;;;9.67;4.33;;;;;26.71;40.89;101902.09;5018518;28;45498;-72
2022/08/10 01:40:39;;;;;;;;;6.00;6.00;;;;;26.70;40.32;101899.47;5018223;28;46422;-71
2022/08/10 01:43:07;;;;;;;;;4.67;4.00;;;;;26.69;40.94;101892.28;5002699;28;45411;-71
2022/08/10 01:45:33;;;;;;;;;5.00;4.00;;;;;26.67;41.21;101891.44;5021511;28;45517;-71
2022/08/10 01:50:46;;;;;;;;;5.00;5.00;;;;;26.63;41.21;101896.09;5024559;28;45449;-71
2022/08/10 01:53:17;;;;;;;;;9.33;5.00;;;;;26.56;41.21;101884.59;5038453;28;45511;-70
2022/08/10 01:55:43;;;;;;;;;5.67;4.00;;;;;26.54;41.54;101889.22;5039426;28;45237;-70
2022/08/10 01:58:10;;;;;;;;;5.00;5.00;;;;;26.53;41.46;101890.16;5020982;28;58259;-71
2022/08/10 02:00:37;;;;;;;;;4.33;4.33;;;;;26.54;41.53;101889.22;5038297;28;71273;-70
2022/08/10 02:03:06;;;;;;;;;7.00;5.00;;;;;26.53;41.22;101884.75;5021199;28;45515;-72
2022/08/10 02:05:32;;;;;;;;;4.00;4.00;;;;;26.49;41.26;101880.38;5022244;28;45381;-70
2022/08/10 02:07:58;;;;;;;;;5.33;4.00;;;;;26.48;41.23;101877.75;5039391;28;45579;-72
2022/08/10 02:10:25;;;;;;;;;3.67;3.67;;;;;26.45;41.81;101884.16;5021281;28;45938;-71
2022/08/10 02:12:55;;;;;;;;;5.00;5.00;;;;;26.40;41.74;101883.41;5038961;28;45261;-70
2022/08/10 02:15:21;;;;;;;;;5.00;5.00;;;;;26.37;41.87;101883.53;5021677;28;45320;-72
2022/08/10 02:17:50;;;;;;;;;4.00;4.00;;;;;26.34;41.55;101880.94;5021354;28;45662;-72
2022/08/10 02:20:19;;;;;;;;;4.67;4.67;;;;;26.31;42.09;101884.66;5021181;28;45698;-70
2022/08/10 02:22:48;;;;;;;;;5.00;5.00;;;;;26.29;42.19;101888.34;5020897;28;45327;-70
2022/08/10 02:25:15;;;;;;;;;5.00;5.00;;;;;26.24;42.51;101888.53;5021273;28;45305;-72
2022/08/10 02:27:41;;;;;;;;;7.00;5.00;;;;;26.21;42.33;101893.19;5020252;28;62093;-72
2022/08/10 02:30:09;;;;;;;;;4.33;4.33;;;;;26.15;41.86;101898.81;5037956;28;72722;-72
2022/08/10 02:32:35;;;;;;;;;5.00;5.00;;;;;26.12;42.69;101894.41;5020764;28;45341;-72
2022/08/10 02:35:03;;;;;;;;;8.00;4.33;;;;;26.08;42.41;101892.75;5038508;28;45497;-70
2022/08/10 02:37:29;;;;;;;;;5.00;5.00;;;;;26.06;42.72;101895.50;5020918;28;45631;-72
2022/08/10 02:39:55;;;;;;;;;5.33;5.00;;;;;26.03;43.11;101895.59;5020138;28;59368;-71
2022/08/10 02:42:27;;;;;;;;;5.00;4.00;;;;;25.98;42.27;101885.88;5020875;28;45873;-71
2022/08/10 02:45:04;;;;;;;;;5.00;5.00;;;;;25.96;42.37;101893.19;5020957;28;45348;-70
2022/08/10 02:47:35;;;;;;;;;7.00;5.00;;;;;25.95;43.28;101892.31;5038278;28;45335;-71
2022/08/10 02:50:11;;;;;;;;;7.33;4.33;;;;;25.92;42.52;101896.94;5020710;28;45727;-72
2022/08/10 02:52:44;;;;;;;;;5.00;5.00;;;;;25.88;42.62;101897.97;5020535;28;45416;-71
2022/08/10 02:55:17;;;;;;;;;5.33;4.00;;;;;25.87;43.39;101899.81;5019258;28;45261;-71
2022/08/10 02:57:48;;;;;;;;;4.00;4.00;;;;;25.82;43.18;101890.97;5021002;28;45203;-71
2022/08/10 03:00:14;;;;;;;;;4.00;4.00;;;;;25.81;43.12;101900.03;5021159;28;46562;-71
2022/08/10 03:02:42;;;;;;;;;5.33;5.33;;;;;25.77;43.44;101892.97;5020504;28;45315;-70
2022/08/10 03:05:12;;;;;;;;;5.00;5.00;;;;;25.75;43.14;101902.97;5038500;28;45253;-72
2022/08/10 03:07:48;;;;;;;;;6.00;6.00;;;;;25.71;43.91;101902.13;5020227;28;45270;-72
2022/08/10 03:10:37;;;;;;;;;5.67;5.67;;;;;25.67;43.67;101907.72;5020188;28;45842;-72
2022/08/10 03:13:05;;;;;;;;;7.00;6.00;;;;;25.63;43.96;101900.66;5020545;28;45637;-71
2022/08/10 03:15:33;;;;;;;;;4.00;4.00;;;;;25.59;44.08;101900.75;5020068;28;45310;-70
2022/08/10 03:17:59;;;;;;;;;7.00;7.00;;;;;25.60;44.02;101897.09;5020554;28;45346;-72
2022/08/10 03:20:32;;;;;;;;;7.33;5.00;;;;;25.59;44.26;101898.03;5019938;28;45864;-71
2022/08/10 03:22:59;;;;;;;;;6.33;6.33;;;;;25.56;43.70;101895.44;5020337;28;45583;-71
2022/08/10 03:25:26;;;;;;;;;6.00;5.00;;;;;25.56;44.42;101894.56;5019441;28;61263;-70
2022/08/10 03:27:52;;;;;;;;;6.00;5.00;;;;;25.55;44.19;101887.38;5019522;28;58692;-70
2022/08/10 03:30:17;;;;;;;;;6.00;5.67;;;;;25.52;44.75;101887.50;5019007;28;69694;-70
2022/08/10 03:32:43;;;;;;;;;8.00;6.00;;;;;25.46;44.61;101883.19;5037856;28;45325;-70
2022/08/10 03:35:08;;;;;;;;;5.00;5.00;;;;;25.44;44.28;101882.34;5019760;28;45468;-72
2022/08/10 03:37:34;;;;;;;;;4.67;4.67;;;;;25.40;44.98;101891.50;5020166;28;45391;-71
2022/08/10 03:40:00;;;;;;;;;6.00;5.00;;;;;25.38;44.47;101895.19;5019940;28;46440;-72
2022/08/10 03:42:26;;;;;;;;;6.67;6.67;;;;;25.31;44.64;101894.53;5037146;28;65308;-70
2022/08/10 03:44:52;;;;;;;;;5.67;5.67;;;;;25.26;45.16;101891.97;5019972;28;45332;-70
2022/08/10 03:47:19;;;;;;;;;10.00;6.67;;;;;25.22;45.56;101890.31;5019664;28;45506;-71
2022/08/10 03:49:46;;;;;;;;;8.00;5.00;;;;;25.20;45.56;101897.59;5019366;28;46674;-72
2022/08/10 03:52:13;;;;;;;;;7.00;5.67;;;;;25.12;45.20;101891.53;5019673;28;45404;-71
2022/08/10 03:54:38;;;;;;;;;8.00;6.33;;;;;25.13;45.77;101901.41;5019220;28;45587;-71
2022/08/10 03:57:04;;;;;;;;;7.00;6.00;;;;;25.10;45.64;101897.94;5019195;28;58430;-72
2022/08/10 03:59:30;;;;;;;;;6.33;5.00;;;;;25.02;45.76;101890.91;5019495;28;48092;-70
2022/08/10 04:01:56;;;;;;;;;7.33;7.33;;;;;25.02;45.75;101899.03;5019640;28;45344;-70
2022/08/10 04:04:21;;;;;;;;;6.00;6.00;;;;;24.94;45.94;101890.28;5019466;28;45393;-71
2022/08/10 04:06:46;;;;;;;;;5.33;5.33;;;;;24.92;46.18;101900.25;5037306;28;45275;-71
2022/08/10 04:09:12;;;;;;;;;8.67;5.00;;;;;24.85;46.71;101885.16;5018849;28;62697;-72
2022/08/10 04:11:39;;;;;;;;;7.00;4.00;;;;;24.86;46.54;101895.03;5036409;28;65168;-72
2022/08/10 04:14:04;;;;;;;;;8.00;4.67;;;;;24.85;46.88;101898.69;5037161;28;45268;-69
2022/08/10 04:16:30;;;;;;;;;5.00;5.00;;;;;24.79;46.77;101893.47;5037227;28;45272;-71
2022/08/10 04:18:55;;;;;;;;;7.33;5.33;;;;;24.76;46.97;101885.44;5018277;28;68147;-71
2022/08/10 04:21:26;;;;;;;;;5.33;5.00;;;;;24.72;47.33;101892.78;5037365;28;45422;-72
2022/08/10 04:23:52;;;;;;;;;6.33;5.00;;;;;24.71;47.12;101899.09;5019441;28;45411;-70
2022/08/10 04:26:18;;;;;;;;;6.67;5.00;;;;;24.69;47.25;101892.88;5019506;28;45352;-70
2022/08/10 04:28:43;;;;;;;;;8.67;6.00;;;;;24.68;47.77;101899.22;5019114;28;46403;-70
2022/08/10 04:31:11;;;;;;;;;8.00;5.67;;;;;24.66;47.38;101905.56;5019046;28;45325;-71
2022/08/10 04:33:41;;;;;;;;;5.00;5.00;;;;;24.61;47.65;101899.41;5018996;28;45405;-72
2022/08/10 04:36:09;;;;;;;;;6.00;6.00;;;;;24.54;47.94;101891.50;5018847;28;45534;-70
2022/08/10 04:38:35;;;;;;;;;8.33;7.00;;;;;24.56;47.93;101902.28;5018641;28;46527;-72
2022/08/10 04:41:01;;;;;;;;;7.00;7.00;;;;;24.53;48.27;101903.25;5036234;28;64873;-70
2022/08/10 04:43:26;;;;;;;;;5.00;5.00;;;;;24.49;48.05;101898.88;5036806;28;45510;-72
2022/08/10 04:45:52;;;;;;;;;8.00;6.00;;;;;24.44;48.72;101894.53;5019044;28;45493;-71
2022/08/10 04:48:20;;;;;;;;;6.33;6.33;;;;;24.47;48.45;101911.53;5035668;28;70525;-71
2022/08/10 04:50:45;;;;;;;;;5.00;5.00;;;;;24.44;49.02;101906.22;5019235;28;45370;-70
2022/08/10 04:53:10;;;;;;;;;7.67;6.00;;;;;24.43;48.76;101906.28;5035317;28;62521;-70
2022/08/10 04:55:36;;;;;;;;;6.00;6.00;;;;;24.42;49.24;101910.78;5035955;28;59290;-72
2022/08/10 04:58:01;;;;;;;;;6.67;6.33;;;;;24.40;49.32;101904.56;5018385;28;48656;-70
2022/08/10 05:00:27;;;;;;;;;6.33;5.00;;;;;24.42;49.28;101907.22;5036771;28;45345;-71
2022/08/10 05:02:52;;;;;;;;;9.67;6.67;;;;;24.39;48.87;101907.28;5036762;28;45779;-72
2022/08/10 05:05:18;;;;;;;;;7.00;6.00;;;;;24.39;49.67;101912.69;5018721;28;45368;-71
2022/08/10 05:07:44;;;;;;;;;5.67;5.67;;;;;24.37;50.16;101918.13;5036255;28;46865;-71
2022/08/10 05:10:09;;;;;;;;;5.33;5.00;;;;;24.36;49.91;101907.41;5036754;28;45203;-71
2022/08/10 05:12:36;;;;;;;;;4.00;4.00;;;;;24.37;50.22;101923.53;5017922;28;62385;-71
2022/08/10 05:15:08;;;;;;;;;7.00;6.00;;;;;24.35;50.32;101917.31;5036876;28;45396;-71
2022/08/10 05:17:34;;;;;;;;;6.33;6.00;;;;;24.35;50.26;101922.72;5036214;28;46125;-71
2022/08/10 05:20:01;;;;;;;;;7.67;6.00;;;;;24.31;51.02;101918.28;5039780;28;45405;-70
2022/08/10 05:22:26;;;;;;;;;5.00;5.00;;;;;24.31;50.67;101924.56;5040043;28;45479;-70
2022/08/10 05:24:52;;;;;;;;;6.00;4.67;;;;;24.29;51.45;101918.34;5040150;28;45251;-70
2022/08/10 05:27:17;;;;;;;;;6.67;6.00;;;;;24.31;51.23;101921.88;5038818;28;64198;-71
2022/08/10 05:29:42;;;;;;;;;5.33;5.33;;;;;24.33;51.04;101929.91;5039634;28;48280;-69
2022/08/10 05:32:09;;;;;;;;;7.00;5.00;;;;;24.36;51.35;101926.28;5038900;28;55245;-71
2022/08/10 05:34:34;;;;;;;;;4.00;4.00;;;;;24.37;51.33;101925.34;5022125;28;45388;-70
2022/08/10 05:37:00;;;;;;;;;8.33;5.33;;;;;24.37;51.51;101931.63;5039390;28;46557;-71
2022/08/10 05:39:26;;;;;;;;;4.33;4.33;;;;;24.35;51.17;101925.41;5039648;28;45501;-70
2022/08/10 05:41:53;;;;;;;;;3.00;3.00;;;;;24.35;51.64;101928.09;5038636;28;61660;-72
2022/08/10 05:44:21;;;;;;;;;6.00;4.33;;;;;24.33;52.06;101931.72;5022258;28;45363;-72
2022/08/10 05:46:48;;;;;;;;;6.00;4.33;;;;;24.32;51.75;101928.16;5021025;28;46229;-71
2022/08/10 05:49:13;;;;;;;;;6.00;5.00;;;;;24.32;51.98;101925.44;5039310;28;45414;-72
2022/08/10 05:51:38;;;;;;;;;6.00;6.00;;;;;24.39;52.15;101926.19;5020385;28;65330;-71
2022/08/10 05:54:11;;;;;;;;;5.00;5.00;;;;;24.38;51.83;101921.72;5020646;28;59671;-70
2022/08/10 05:56:38;;;;;;;;;7.00;6.33;;;;;24.43;51.30;101930.56;5039000;28;46100;-70
2022/08/10 05:59:03;;;;;;;;;4.00;4.00;;;;;24.45;51.75;101920.59;5021629;28;45485;-70
2022/08/10 06:01:30;;;;;;;;;5.00;5.00;;;;;24.45;51.57;101917.91;5021114;28;49604;-72
2022/08/10 06:03:57;;;;;;;;;6.00;6.00;;;;;24.46;51.92;101919.69;5022066;28;45506;-71
2022/08/10 06:06:24;;;;;;;;;6.00;6.00;;;;;24.49;52.52;101922.28;5038849;28;46177;-70
2022/08/10 06:08:51;;;;;;;;;6.00;6.00;;;;;24.51;52.59;101931.25;5021323;28;45404;-71
2022/08/10 06:11:17;;;;;;;;;4.33;4.33;;;;;24.53;52.29;101932.06;5020945;28;51371;-72
2022/08/10 06:16:37;;;;;;;;;8.33;7.00;;;;;24.55;52.62;101930.19;5038915;28;45831;-70
2022/08/10 06:19:03;;;;;;;;;6.00;6.00;;;;;24.54;52.39;101928.44;5022459;28;45397;-72
2022/08/10 06:21:29;;;;;;;;;7.33;6.00;;;;;24.59;52.85;101931.00;5020325;28;64401;-71
2022/08/10 06:23:55;;;;;;;;;7.00;7.00;;;;;24.62;52.32;101933.63;5038440;28;57620;-71
2022/08/10 06:26:20;;;;;;;;;6.00;6.00;;;;;24.66;53.08;101935.28;5020843;28;46771;-71
2022/08/10 06:29:07;;;;;;;;;6.00;6.00;;;;;24.68;52.78;101938.84;5020079;28;45888;-71
2022/08/10 06:31:36;;;;;;;;;6.00;6.00;;;;;24.71;52.48;101939.63;5020641;28;45332;-72
2022/08/10 06:34:01;;;;;;;;;7.00;7.00;;;;;24.74;52.42;101944.06;5038792;28;45443;-71
2022/08/10 06:36:28;;;;;;;;;6.33;6.33;;;;;24.77;52.43;101938.56;5020548;28;45754;-72
2022/08/10 06:38:55;;;;;;;;;12.33;8.00;;;;;24.79;52.18;101942.97;5038561;28;45339;-72
2022/08/10 06:41:22;;;;;;;;;7.33;6.00;;;;;24.81;51.89;101935.69;5038173;28;61250;-72
2022/08/10 06:43:56;;;;;;;;;10.00;7.00;;;;;24.86;51.92;101937.38;5038780;28;45286;-71
2022/08/10 06:46:22;;;;;;;;;7.33;6.00;;;;;24.91;51.70;101932.72;5020185;28;46924;-71
2022/08/10 06:48:56;;;;;;;;;7.00;7.00;;;;;24.94;51.90;101936.22;5037685;28;68545;-70
2022/08/10 06:51:25;;;;;;;;;9.00;6.00;;;;;24.98;51.17;101937.91;5038232;28;45442;-72
2022/08/10 06:53:53;;;;;;;;;8.67;8.67;;;;;24.98;51.12;101932.50;5020174;28;45452;-71
2022/08/10 06:56:23;;;;;;;;;7.33;7.00;;;;;25.03;50.96;101943.13;5038231;28;46076;-72
2022/08/10 06:58:52;;;;;;;;;9.00;7.67;;;;;25.08;50.65;101952.91;5020702;28;45308;-70
2022/08/10 07:01:19;;;;;;;;;8.00;6.67;;;;;25.11;51.06;101943.84;5003899;28;45337;-70
2022/08/10 07:03:58;;;;;;;;;8.00;7.67;;;;;25.14;50.36;101953.66;5036985;28;45320;-70
2022/08/10 07:06:24;;;;;;;;;10.00;8.00;;;;;25.16;50.30;101954.50;5017214;28;48296;-71
2022/08/10 07:08:50;;;;;;;;;9.33;9.33;;;;;25.17;50.55;101951.75;5020688;28;45412;-72
2022/08/10 07:11:18;;;;;;;;;10.33;9.00;;;;;25.20;50.51;101953.47;5003859;28;45411;-71
2022/08/10 07:13:45;;;;;;;;;13.00;8.33;;;;;25.23;50.96;101951.53;5038364;28;45542;-71
2022/08/10 07:16:12;;;;;;;;;11.00;10.67;;;;;25.25;50.31;101938.88;5037116;28;70670;-71
2022/08/10 07:18:38;;;;;;;;;8.33;7.00;;;;;25.30;50.51;101949.50;5020152;28;45365;-70
2022/08/10 07:21:05;;;;;;;;;11.33;8.67;;;;;25.29;50.73;101945.94;5020191;28;45244;-72
2022/08/10 07:23:31;;;;;;;;;10.67;8.67;;;;;25.33;50.32;101953.00;5019963;28;51999;-71
2022/08/10 07:25:58;;;;;;;;;9.33;8.67;;;;;25.33;50.45;101938.59;5019373;28;59018;-70
2022/08/10 07:28:23;;;;;;;;;8.00;8.00;;;;;25.38;50.49;101944.75;5020168;28;45334;-71
2022/08/10 07:30:51;;;;;;;;;8.33;6.67;;;;;25.39;50.62;101933.00;5020052;28;45280;-71
2022/08/10 07:33:18;;;;;;;;;4.00;4.00;;;;;25.44;50.30;101943.66;5019861;28;45537;-70
2022/08/10 07:35:45;;;;;;;;;9.00;9.00;;;;;25.46;49.95;101940.00;5037169;28;46786;-72
2022/08/10 07:38:25;;;;;;;;;10.67;8.67;;;;;25.50;50.42;101936.22;5019754;28;45322;-70
2022/08/10 07:40:52;;;;;;;;;8.67;7.00;;;;;25.50;49.92;101936.22;5037966;28;45361;-70
2022/08/10 07:43:21;;;;;;;;;7.33;7.33;;;;;25.57;50.20;101947.75;5037937;28;45609;-70
2022/08/10 07:45:47;;;;;;;;;10.33;8.00;;;;;25.59;50.34;101941.31;5019361;28;45468;-72
2022/08/10 07:48:33;;;;;;;;;8.33;7.33;;;;;25.62;50.57;101940.34;5037275;28;45370;-70
2022/08/10 07:51:00;;;;;;;;;8.00;8.00;;;;;25.69;49.79;101944.59;5019866;28;45387;-72
2022/08/10 07:53:30;;;;;;;;;11.00;9.67;;;;;25.73;49.90;101945.41;5019116;28;45442;-70
2022/08/10 07:55:57;;;;;;;;;13.67;9.67;;;;;25.76;50.42;101940.78;5036033;28;46582;-72
2022/08/10 07:58:26;;;;;;;;;7.33;7.33;;;;;25.79;49.97;101945.22;5019697;28;45439;-71
2022/08/10 08:00:52;;;;;;;;;9.00;8.00;;;;;25.83;49.73;101941.44;5037506;28;45388;-72
2022/08/10 08:03:24;;;;;;;;;10.00;9.00;;;;;25.89;49.80;101946.66;5019624;28;47398;-70
2022/08/10 08:05:50;;;;;;;;;7.67;7.00;;;;;25.93;49.74;101948.31;5032795;28;46390;-72
2022/08/10 08:08:17;;;;;;;;;11.00;6.67;;;;;25.99;49.62;101958.03;5037331;28;45401;-71
2022/08/10 08:10:44;;;;;;;;;12.00;7.00;;;;;26.03;49.54;101954.28;5037292;28;45242;-71
2022/08/10 08:13:10;;;;;;;;;9.00;8.00;;;;;26.02;49.04;101947.97;5037564;28;45270;-72
2022/08/10 08:15:37;;;;;;;;;8.00;7.00;;;;;26.07;49.24;101940.59;5018595;28;47927;-71
2022/08/10 08:18:04;;;;;;;;;8.00;8.00;;;;;26.13;49.14;101944.88;5037284;28;45414;-70
2022/08/10 08:20:30;;;;;;;;;6.67;6.67;;;;;26.13;48.64;101939.47;5036702;28;45481;-72
2022/08/10 08:22:56;;;;;;;;;8.67;7.67;;;;;26.16;48.61;101933.97;5037498;28;45300;-70
2022/08/10 08:25:23;;;;;;;;;9.33;8.00;;;;;26.22;48.15;101932.84;5018962;28;47031;-72
2022/08/10 08:27:52;;;;;;;;;11.00;8.00;;;;;26.24;48.43;101925.53;5018430;28;62907;-72
2022/08/10 08:30:19;;;;;;;;;10.00;7.67;;;;;26.29;48.14;101934.38;5036963;28;45304;-71
2022/08/10 08:32:45;;;;;;;;;8.00;8.00;;;;;26.30;47.93;101926.19;5037144;28;45446;-71
2022/08/10 08:35:14;;;;;;;;;9.67;9.00;;;;;26.35;47.92;101926.03;5018625;28;45856;-72
2022/08/10 08:37:41;;;;;;;;;9.67;8.67;;;;;26.39;47.82;101917.72;5019037;28;45375;-70
2022/08/10 08:40:13;;;;;;;;;9.00;8.00;;;;;26.43;48.03;101921.25;5019093;28;45369;-71
2022/08/10 08:42:48;;;;;;;;;11.00;9.00;;;;;26.48;47.92;101921.97;5037083;28;45267;-71
2022/08/10 08:45:24;;;;;;;;;10.00;8.67;;;;;26.53;47.36;101919.09;5036280;28;46544;-72
2022/08/10 08:48:01;;;;;;;;;9.00;8.33;;;;;26.53;47.76;101917.25;5018908;28;45354;-71
2022/08/10 08:53:17;;;;;;;;;9.00;9.00;;;;;26.61;47.46;101925.94;5179034;22;45288;-72
2022/08/10 08:55:49;;;;;;;;;10.33;9.33;;;;;26.62;47.38;101921.41;5051014;28;46226;-70
2022/08/10 08:58:35;;;;;;;;;6.00;6.00;;;;;26.69;46.99;101922.97;5042526;28;45279;-70
2022/08/10 09:01:37;;;;;;;;;11.67;10.00;;;;;26.73;47.02;101913.75;5060316;28;45338;-71
2022/08/10 09:04:11;;;;;;;;;10.00;8.67;;;;;26.80;46.77;101911.69;5060724;28;45327;-71
2022/08/10 09:06:51;;;;;;;;;9.00;9.00;;;;;26.84;47.24;101910.59;5042357;28;46660;-70
2022/08/10 09:09:41;;;;;;;;;10.67;10.00;;;;;26.90;47.09;101915.81;5060303;28;45474;-71
2022/08/10 09:12:21;;;;;;;;;11.00;8.00;;;;;26.95;46.17;101913.78;5060415;28;45343;-71
2022/08/10 09:14:52;;;;;;;;;9.33;8.67;;;;;26.99;46.57;101906.41;5060588;28;45400;-72
2022/08/10 09:17:27;;;;;;;;;8.33;8.33;;;;;27.03;46.22;101906.22;5070733;28;46169;-72
2022/08/10 09:20:03;;;;;;;;;10.33;9.00;;;;;27.08;45.66;101903.38;5049242;28;45382;-72
2022/08/10 09:22:36;;;;;;;;;8.33;8.33;;;;;27.11;45.74;101897.81;5042089;28;45232;-71
2022/08/10 09:25:17;;;;;;;;;6.33;6.00;;;;;27.18;46.05;101895.75;5042400;28;45205;-72
2022/08/10 09:27:45;;;;;;;;;7.67;7.67;;;;;27.24;45.38;101898.19;5059839;28;46698;-70
2022/08/10 09:30:17;;;;;;;;;9.33;9.33;;;;;27.30;45.73;101895.22;5059867;28;45386;-72
2022/08/10 09:32:46;;;;;;;;;9.33;7.67;;;;;27.35;45.80;101896.78;5059968;28;45364;-71
2022/08/10 09:35:17;;;;;;;;;10.67;8.33;;;;;27.40;45.17;101894.75;5057303;28;45473;-73
2022/08/10 09:37:45;;;;;;;;;11.67;9.00;;;;;27.45;45.49;101886.44;5021750;28;46783;-73
2022/08/10 09:40:24;;;;;;;;;7.33;7.33;;;;;27.53;45.00;101891.53;5039370;28;45475;-71
2022/08/10 09:42:59;;;;;;;;;11.67;9.00;;;;;27.56;44.75;101883.25;5021928;28;45274;-70
2022/08/10 09:45:52;;;;;;;;;12.33;10.00;;;;;27.62;44.75;101875.72;5045828;28;45363;-73
2022/08/10 09:48:20;;;;;;;;;9.00;9.00;;;;;27.68;44.83;101888.16;5041557;28;45700;-71
2022/08/10 09:50:57;;;;;;;;;10.00;10.00;;;;;27.74;44.74;101881.59;5059802;28;45256;-70
2022/08/10 09:53:44;;;;;;;;;13.67;11.00;;;;;27.81;44.02;101880.41;5041287;28;45555;-70
2022/08/10 09:56:35;;;;;;;;;12.00;9.00;;;;;27.87;44.35;101877.41;5059645;28;45723;-72
2022/08/10 09:59:11;;;;;;;;;8.33;8.33;;;;;27.86;43.79;101865.66;5053607;28;46725;-72
2022/08/10 10:01:43;;;;;;;;;3.00;3.00;;;;;27.96;43.81;101865.22;5046512;28;45362;-70
2022/08/10 10:04:16;;;;;;;;;11.00;9.33;;;;;28.03;43.96;101861.31;5040996;28;45271;-72
2022/08/10 10:06:50;;;;;;;;;13.33;11.00;;;;;28.12;43.63;101864.44;5059547;28;45501;-71
2022/08/10 10:09:38;;;;;;;;;12.00;9.00;;;;;28.19;43.88;101865.97;5041227;28;45713;-70
2022/08/10 10:12:24;;;;;;;;;7.00;7.00;;;;;28.27;44.13;101864.72;5041180;28;45399;-71
2022/08/10 10:18:01;;;;;;;;;10.00;9.00;;;;;28.41;42.46;101856.84;5059333;28;45332;-71
2022/08/10 10:20:54;;;;;;;;;12.00;10.00;;;;;28.47;42.68;101850.22;5058825;28;46214;-72
2022/08/10 10:23:57;;;;;;;;;8.00;8.00;;;;;28.53;42.79;101848.09;5059131;28;45433;-70
2022/08/10 10:26:25;;;;;;;;;10.00;10.00;;;;;28.60;42.29;101843.22;5059204;28;45492;-70
2022/08/10 10:29:06;;;;;;;;;7.00;7.00;;;;;28.66;42.37;101849.28;5041327;28;45384;-70
2022/08/10 10:32:03;;;;;;;;;13.33;11.67;;;;;28.73;41.97;101843.53;5058662;28;45606;-72
2022/08/10 10:34:40;;;;;;;;;9.67;9.67;;;;;28.79;41.95;101840.50;5045259;28;45650;-71
2022/08/10 10:37:06;;;;;;;;;9.33;8.33;;;;;28.82;41.77;101835.81;5056370;28;45318;-72
2022/08/10 10:39:32;;;;;;;;;9.67;9.00;;;;;28.90;40.67;101827.25;5040919;28;45536;-70
2022/08/10 10:42:11;;;;;;;;;9.00;7.33;;;;;29.00;41.01;101839.47;5040987;28;46480;-72
2022/08/10 10:45:15;;;;;;;;;9.33;9.33;;;;;29.10;40.78;101831.75;5041071;28;45477;-69
2022/08/10 10:48:06;;;;;;;;;9.00;9.00;;;;;29.17;40.31;101825.03;5008031;28;45308;-70
2022/08/10 10:50:49;;;;;;;;;7.00;7.00;;;;;29.26;40.54;101821.84;5059170;28;45319;-71
2022/08/10 10:53:21;;;;;;;;;8.00;8.00;;;;;29.32;40.01;101818.78;5040199;28;45436;-70
2022/08/10 10:56:02;;;;;;;;;6.00;6.00;;;;;29.42;39.01;101817.34;5040570;28;45261;-70
2022/08/10 10:58:47;;;;;;;;;10.00;8.33;;;;;29.48;38.93;101808.88;5040829;28;45348;-72
2022/08/10 11:01:21;;;;;;;;;13.00;11.67;;;;;29.56;38.46;101808.47;5040573;28;45332;-71
2022/08/10 11:04:08;;;;;;;;;8.00;7.00;;;;;29.61;38.14;101805.50;5058559;28;45519;-71
2022/08/10 11:07:10;;;;;;;;;6.33;6.33;;;;;29.67;37.69;101803.38;5058481;28;45217;-70
2022/08/10 11:09:43;;;;;;;;;7.67;7.67;;;;;29.75;36.46;101795.66;5058466;28;45411;-72
2022/08/10 11:12:19;;;;;;;;;9.67;9.67;;;;;29.84;36.74;101794.28;5040566;28;45297;-72
2022/08/10 11:14:55;;;;;;;;;8.00;8.00;;;;;29.91;37.02;101781.19;5058268;28;45756;-70
2022/08/10 11:17:31;;;;;;;;;9.00;9.00;;;;;30.01;36.41;101786.06;5039446;28;45868;-70
2022/08/10 11:20:07;;;;;;;;;8.00;8.00;;;;;30.10;36.26;101781.94;5040079;28;45353;-70
2022/08/10 11:22:59;;;;;;;;;7.00;7.00;;;;;30.22;36.24;101781.28;5040085;28;45256;-71
2022/08/10 11:25:30;;;;;;;;;12.00;9.00;;;;;30.31;35.65;101776.28;5046680;28;46600;-71
2022/08/10 11:27:59;;;;;;;;;9.00;7.00;;;;;30.36;35.50;101776.88;5040131;28;45398;-72
2022/08/10 11:30:41;;;;;;;;;8.00;6.33;;;;;30.47;34.92;101767.16;5058018;28;45397;-69
2022/08/10 11:33:16;;;;;;;;;9.00;8.33;;;;;30.57;35.39;101767.47;5040229;28;45423;-72
2022/08/10 11:36:10;;;;;;;;;7.33;7.33;;;;;30.65;34.25;101769.78;5051419;28;46581;-72
2022/08/10 11:39:04;;;;;;;;;7.00;7.00;;;;;30.74;34.54;101767.44;5037472;28;45704;-72
2022/08/10 11:41:40;;;;;;;;;7.33;6.00;;;;;30.84;33.57;101759.59;5057949;28;45234;-72
2022/08/10 11:44:14;;;;;;;;;8.00;6.00;;;;;31.00;32.34;101762.25;5058045;28;45357;-71
2022/08/10 11:47:14;;;;;;;;;7.00;7.00;;;;;31.13;31.62;101754.22;5039229;28;45883;-70
2022/08/10 11:49:45;;;;;;;;;9.33;7.00;;;;;31.23;32.52;101750.84;5046475;28;45432;-72
2022/08/10 11:52:33;;;;;;;;;5.67;5.67;;;;;31.40;31.54;101754.41;5057753;28;45351;-72